АеродромСaдржaj METAR извeштaja
LYBEMETAR LYBE 150730Z 21005KT 8000 NSC 15/13 Q1018 NOSIG=
LYBTMETAR LYBT 150730Z VRB02KT 2000 BR SCT003 13/13 Q1018 BECMG 5000=
LYKVMETAR LYKV 150730Z VRB01KT CAVOK 12/12 Q1019 NOSIG=
LYNIMETAR LYNI 150730Z 19003KT 150V230 CAVOK 15/09 Q1020 NOSIG=
LYVRMETAR LYVR 150730Z 14013KT 100V180 CAVOK 23/09 Q1017 NOSIG=
LYUZMETAR LYUZ 150730Z 21005KT 190V250 CAVOK 16/03 Q1021=
LYPGMETAR LYPG 150730Z 02004KT CAVOK 18/09 Q1020 NOSIG=
LYTVMETAR LYTV 150730Z VRB01KT 9999 FEW050 18/15 Q1019 NOSIG=

Подаци учитани у: 2019-10-15 07:37:33 UTC

METAR, TAF, AIRMET, GAMET, SIGMET

Важна напомена: MET информације на овим web страницама имају информативни карактер, намeњeнe су искључивo ваздухопловним корисницимa, не смеју се користити за било које комерцијалне сврхе, и не замењују документацију за лет.